createdAt,value
2023-04-09T00:00:27.065Z,0
2023-04-09T00:01:41.383Z,0
2023-04-09T00:02:55.667Z,0
2023-04-09T00:04:09.941Z,0
2023-04-09T00:05:24.340Z,0
2023-04-09T00:06:38.668Z,0
2023-04-09T00:07:52.955Z,0
2023-04-09T00:09:07.236Z,0
2023-04-09T00:10:21.635Z,0
2023-04-09T00:12:50.240Z,0
2023-04-09T00:14:04.535Z,0
2023-04-09T00:15:18.938Z,0
2023-04-09T00:16:33.266Z,0
2023-04-09T00:17:47.538Z,0
2023-04-09T00:19:01.819Z,0
2023-04-09T00:20:16.241Z,0
2023-04-09T00:21:30.560Z,0
2023-04-09T00:22:44.829Z,0
2023-04-09T00:23:59.127Z,0
2023-04-09T00:25:13.525Z,0
2023-04-09T00:26:27.853Z,0
2023-04-09T00:27:42.135Z,0
2023-04-09T00:28:56.406Z,0
2023-04-09T00:30:10.814Z,0
2023-04-09T00:31:25.140Z,0
2023-04-09T00:32:39.429Z,0
2023-04-09T00:33:53.847Z,0
2023-04-09T00:35:08.198Z,0
2023-04-09T00:36:22.530Z,0
2023-04-09T00:38:51.131Z,0
2023-04-09T00:40:05.423Z,0
2023-04-09T00:41:19.827Z,0
2023-04-09T00:43:48.421Z,0
2023-04-09T00:45:02.716Z,0
2023-04-09T00:46:17.114Z,0
2023-04-09T00:47:31.440Z,0
2023-04-09T00:48:45.715Z,0
2023-04-09T00:50:00.011Z,0
2023-04-09T00:51:14.412Z,0
2023-04-09T00:52:28.740Z,0
2023-04-09T00:53:43.013Z,0
2023-04-09T00:54:57.285Z,0
2023-04-09T00:56:11.700Z,0
2023-04-09T00:57:26.034Z,0
2023-04-09T00:58:40.456Z,0
2023-04-09T00:59:54.782Z,0
2023-04-09T01:01:09.061Z,0
2023-04-09T01:02:23.469Z,0
2023-04-09T01:03:37.794Z,0
2023-04-09T01:04:52.062Z,0
2023-04-09T01:06:06.462Z,0
2023-04-09T01:07:20.870Z,0
2023-04-09T01:08:35.203Z,0
2023-04-09T01:09:49.492Z,0
2023-04-09T01:11:03.763Z,0
2023-04-09T01:12:18.178Z,0
2023-04-09T01:13:32.503Z,0
2023-04-09T01:14:46.775Z,0
2023-04-09T01:16:01.200Z,0
2023-04-09T01:17:15.599Z,0
2023-04-09T01:18:29.940Z,0
2023-04-09T01:19:44.213Z,0
2023-04-09T01:20:58.500Z,0
2023-04-09T01:22:12.893Z,0
2023-04-09T01:23:27.232Z,0
2023-04-09T01:24:41.502Z,0
2023-04-09T01:25:55.783Z,0
2023-04-09T01:27:10.195Z,0
2023-04-09T01:28:24.513Z,0
2023-04-09T01:29:38.800Z,0
2023-04-09T01:30:53.087Z,0
2023-04-09T01:32:07.478Z,0
2023-04-09T01:33:21.818Z,0
2023-04-09T01:35:50.373Z,0
2023-04-09T01:37:04.776Z,0
2023-04-09T01:38:19.096Z,0
2023-04-09T01:39:33.377Z,0
2023-04-09T01:40:47.674Z,0
2023-04-09T01:42:02.081Z,0
2023-04-09T01:43:16.395Z,0
2023-04-09T01:44:30.678Z,0
2023-04-09T01:45:45.098Z,0
2023-04-09T01:46:59.519Z,0
2023-04-09T01:48:13.832Z,0
2023-04-09T01:49:28.120Z,0
2023-04-09T01:51:56.808Z,0
2023-04-09T01:53:11.130Z,0
2023-04-09T01:54:25.402Z,0
2023-04-09T01:55:39.836Z,0
2023-04-09T01:56:54.245Z,0
2023-04-09T01:58:08.557Z,0
2023-04-09T01:59:22.836Z,0
2023-04-09T02:01:51.527Z,0
2023-04-09T02:03:05.860Z,0
2023-04-09T02:04:20.134Z,0
2023-04-09T02:05:34.419Z,0
2023-04-09T02:06:48.827Z,0
2023-04-09T02:09:17.436Z,0
2023-04-09T02:10:31.716Z,0
2023-04-09T02:11:46.115Z,0
2023-04-09T02:13:00.434Z,0
2023-04-09T02:14:14.733Z,0
2023-04-09T02:15:29.013Z,0
2023-04-09T02:16:43.411Z,0
2023-04-09T02:17:57.742Z,0
2023-04-09T02:19:12.010Z,0
2023-04-09T02:21:40.848Z,0
2023-04-09T02:22:55.177Z,0
2023-04-09T02:24:09.458Z,0
2023-04-09T02:25:23.868Z,0
2023-04-09T02:26:38.280Z,0
2023-04-09T02:27:52.612Z,0
2023-04-09T02:29:06.894Z,0
2023-04-09T02:30:21.162Z,0
2023-04-09T02:31:35.585Z,0
2023-04-09T02:32:49.910Z,0
2023-04-09T02:34:04.179Z,0
2023-04-09T02:35:18.464Z,0
2023-04-09T02:36:32.872Z,0
2023-04-09T02:37:47.195Z,0
2023-04-09T02:39:01.475Z,0
2023-04-09T02:40:15.907Z,0
2023-04-09T02:41:30.300Z,0
2023-04-09T02:42:44.629Z,0
2023-04-09T02:43:58.917Z,0
2023-04-09T02:45:13.327Z,0
2023-04-09T02:46:27.734Z,0
2023-04-09T02:48:56.332Z,0
2023-04-09T02:50:10.617Z,0
2023-04-09T02:51:25.010Z,0
2023-04-09T02:52:39.332Z,0
2023-04-09T02:53:53.614Z,0
2023-04-09T02:55:07.906Z,0
2023-04-09T02:56:22.310Z,0
2023-04-09T02:57:36.643Z,0
2023-04-09T02:58:50.908Z,0
2023-04-09T03:00:05.205Z,0
2023-04-09T03:01:19.598Z,0
2023-04-09T03:02:33.925Z,0
2023-04-09T03:03:48.203Z,0
2023-04-09T03:05:02.485Z,0
2023-04-09T03:06:16.899Z,0
2023-04-09T03:07:31.223Z,0
2023-04-09T03:08:45.496Z,0
2023-04-09T03:09:59.781Z,0
2023-04-09T03:11:14.184Z,0
2023-04-09T03:12:28.519Z,0
2023-04-09T03:13:42.788Z,0
2023-04-09T03:14:57.210Z,0
2023-04-09T03:16:11.624Z,0
2023-04-09T03:17:25.959Z,0
2023-04-09T03:18:40.241Z,0
2023-04-09T03:19:54.520Z,0
2023-04-09T03:21:08.926Z,0
2023-04-09T03:22:23.238Z,0
2023-04-09T03:23:37.521Z,0
2023-04-09T03:24:51.918Z,0
2023-04-09T03:26:06.339Z,0
2023-04-09T03:27:20.667Z,0
2023-04-09T03:28:34.936Z,0
2023-04-09T03:29:49.213Z,0
2023-04-09T03:31:03.626Z,0
2023-04-09T03:32:17.950Z,0
2023-04-09T03:33:32.242Z,0
2023-04-09T03:34:46.506Z,0
2023-04-09T03:36:00.914Z,0
2023-04-09T03:37:15.245Z,0
2023-04-09T03:38:29.521Z,0
2023-04-09T03:39:43.816Z,0
2023-04-09T03:40:58.224Z,0
2023-04-09T03:42:12.535Z,0
2023-04-09T03:43:26.811Z,0
2023-04-09T03:44:41.251Z,0
2023-04-09T03:45:55.653Z,0
2023-04-09T03:47:09.985Z,0
2023-04-09T03:48:24.249Z,0
2023-04-09T03:49:38.529Z,0
2023-04-09T03:50:52.949Z,0
2023-04-09T03:52:07.264Z,0
2023-04-09T03:53:21.558Z,0
2023-04-09T03:54:35.838Z,0
2023-04-09T03:55:50.230Z,0
2023-04-09T03:57:04.558Z,0
2023-04-09T03:58:18.850Z,0
2023-04-09T03:59:33.257Z,0
2023-04-09T04:00:47.676Z,0
2023-04-09T04:02:01.999Z,0
2023-04-09T04:03:16.274Z,0
2023-04-09T04:04:30.559Z,0
2023-04-09T04:05:44.962Z,0
2023-04-09T04:06:59.201Z,0
2023-04-09T04:08:13.446Z,0
2023-04-09T04:09:27.662Z,0
2023-04-09T04:10:41.898Z,0
2023-04-09T04:11:56.238Z,0
2023-04-09T04:13:10.578Z,0
2023-04-09T04:14:24.980Z,0
2023-04-09T04:15:39.204Z,0
2023-04-09T04:18:07.729Z,0
2023-04-09T04:19:21.978Z,0
2023-04-09T04:20:36.194Z,0
2023-04-09T04:21:50.418Z,0
2023-04-09T04:23:04.648Z,0
2023-04-09T04:24:18.957Z,0
2023-04-09T04:25:33.186Z,0
2023-04-09T04:26:47.417Z,0
2023-04-09T04:28:01.639Z,0
2023-04-09T04:29:16.019Z,0
2023-04-09T04:30:30.312Z,0
2023-04-09T04:31:44.554Z,0
2023-04-09T04:32:58.788Z,0
2023-04-09T04:34:13.005Z,0
2023-04-09T04:35:27.239Z,0
2023-04-09T04:36:41.544Z,0
2023-04-09T04:37:55.774Z,0
2023-04-09T04:39:10.017Z,5
2023-04-09T04:40:24.227Z,5
2023-04-09T04:41:38.594Z,5
2023-04-09T04:42:52.892Z,5
2023-04-09T04:44:07.128Z,5
2023-04-09T04:45:21.351Z,5
2023-04-09T04:46:35.579Z,11
2023-04-09T04:47:49.804Z,11
2023-04-09T04:49:04.101Z,11
2023-04-09T04:50:18.355Z,11
2023-04-09T04:51:32.714Z,16
2023-04-09T04:52:46.931Z,16
2023-04-09T04:54:01.153Z,16
2023-04-09T04:55:15.469Z,22
2023-04-09T04:56:29.692Z,22
2023-04-09T04:57:43.927Z,22
2023-04-09T04:58:58.151Z,28
2023-04-09T05:00:12.378Z,28
2023-04-09T05:01:26.679Z,28
2023-04-09T05:02:40.916Z,33
2023-04-09T05:03:55.149Z,33
2023-04-09T05:05:09.388Z,39
2023-04-09T05:06:23.606Z,39
2023-04-09T05:07:37.898Z,45
2023-04-09T05:08:52.140Z,45
2023-04-09T05:10:06.373Z,45
2023-04-09T05:11:20.737Z,50
2023-04-09T05:12:34.978Z,50
2023-04-09T05:13:49.275Z,56
2023-04-09T05:15:03.511Z,56
2023-04-09T05:16:17.877Z,61
2023-04-09T05:17:32.109Z,61
2023-04-09T05:18:46.486Z,67
2023-04-09T05:20:00.778Z,67
2023-04-09T05:21:15.023Z,73
2023-04-09T05:22:29.256Z,73
2023-04-09T05:23:43.474Z,78
2023-04-09T05:24:57.710Z,78
2023-04-09T05:26:11.000Z,84
2023-04-09T05:27:26.240Z,84
2023-04-09T05:28:40.602Z,90
2023-04-09T05:29:54.825Z,90
2023-04-09T05:31:09.058Z,90
2023-04-09T05:32:23.352Z,95
2023-04-09T05:33:37.597Z,101
2023-04-09T05:34:51.825Z,101
2023-04-09T05:36:06.050Z,106
2023-04-09T05:37:20.264Z,106
2023-04-09T05:38:34.570Z,112
2023-04-09T05:39:48.826Z,112
2023-04-09T05:41:03.033Z,118
2023-04-09T05:42:17.269Z,118
2023-04-09T05:44:45.801Z,123
2023-04-09T05:46:00.046Z,129
2023-04-09T05:47:14.263Z,129
2023-04-09T05:48:28.638Z,135
2023-04-09T05:49:42.855Z,135
2023-04-09T05:50:57.160Z,140
2023-04-09T05:52:11.413Z,140
2023-04-09T05:53:25.639Z,146
2023-04-09T05:54:39.862Z,146
2023-04-09T05:55:54.076Z,151
2023-04-09T05:57:08.394Z,151
2023-04-09T05:58:22.621Z,157
2023-04-09T05:59:36.851Z,157
2023-04-09T06:00:51.217Z,163
2023-04-09T06:02:05.454Z,163
2023-04-09T06:03:19.744Z,168
2023-04-09T06:04:33.992Z,168
2023-04-09T06:05:48.353Z,174
2023-04-09T06:07:02.575Z,174
2023-04-09T06:08:16.789Z,174
2023-04-09T06:09:31.088Z,180
2023-04-09T06:10:45.337Z,180
2023-04-09T06:13:13.799Z,185
2023-04-09T06:14:28.021Z,185
2023-04-09T06:15:42.314Z,185
2023-04-09T06:16:56.564Z,191
2023-04-09T06:18:10.793Z,191
2023-04-09T06:19:25.007Z,191
2023-04-09T06:20:39.241Z,196
2023-04-09T06:21:53.547Z,196
2023-04-09T06:23:07.787Z,202
2023-04-09T06:24:22.018Z,202
2023-04-09T06:25:36.363Z,208
2023-04-09T06:26:50.590Z,213
2023-04-09T06:28:04.889Z,213
2023-04-09T06:29:19.124Z,213
2023-04-09T06:30:33.508Z,219
2023-04-09T06:31:47.724Z,219
2023-04-09T06:33:01.945Z,219
2023-04-09T06:34:16.251Z,230
2023-04-09T06:35:30.506Z,225
2023-04-09T06:36:44.729Z,230
2023-04-09T06:37:58.959Z,230
2023-04-09T06:39:13.180Z,236
2023-04-09T06:40:27.483Z,236
2023-04-09T06:41:41.721Z,236
2023-04-09T06:42:55.952Z,241
2023-04-09T06:44:10.176Z,241
2023-04-09T06:45:24.392Z,241
2023-04-09T06:46:38.699Z,247
2023-04-09T06:47:52.947Z,247
2023-04-09T06:49:07.162Z,253
2023-04-09T06:50:21.392Z,253
2023-04-09T06:51:35.630Z,253
2023-04-09T06:52:49.930Z,258
2023-04-09T06:54:04.165Z,258
2023-04-09T06:55:18.521Z,264
2023-04-09T06:56:32.738Z,264
2023-04-09T06:57:46.961Z,270
2023-04-09T06:59:01.274Z,270
2023-04-09T07:00:15.511Z,275
2023-04-09T07:01:29.744Z,275
2023-04-09T07:02:44.115Z,281
2023-04-09T07:05:12.626Z,281
2023-04-09T07:06:26.877Z,286
2023-04-09T07:07:41.245Z,292
2023-04-09T07:08:55.599Z,292
2023-04-09T07:10:09.955Z,292
2023-04-09T07:11:24.257Z,298
2023-04-09T07:12:38.502Z,298
2023-04-09T07:13:52.739Z,303
2023-04-09T07:15:07.084Z,309
2023-04-09T07:16:21.307Z,309
2023-04-09T07:17:35.604Z,315
2023-04-09T07:18:49.859Z,315
2023-04-09T07:20:04.086Z,320
2023-04-09T07:21:18.295Z,326
2023-04-09T07:22:32.523Z,326
2023-04-09T07:23:46.834Z,331
2023-04-09T07:25:01.070Z,343
2023-04-09T07:26:15.302Z,343
2023-04-09T07:27:29.532Z,343
2023-04-09T07:28:43.755Z,348
2023-04-09T07:31:12.296Z,360
2023-04-09T07:32:26.527Z,371
2023-04-09T07:33:40.741Z,371
2023-04-09T07:34:55.106Z,371
2023-04-09T07:36:09.394Z,376
2023-04-09T07:37:23.648Z,388
2023-04-09T07:38:37.860Z,382
2023-04-09T07:39:52.242Z,388
2023-04-09T07:41:06.458Z,388
2023-04-09T07:42:20.763Z,388
2023-04-09T07:43:35.013Z,388
2023-04-09T07:44:49.375Z,393
2023-04-09T07:46:03.592Z,399
2023-04-09T07:49:46.378Z,416
2023-04-09T07:51:00.592Z,416
2023-04-09T07:52:14.817Z,421
2023-04-09T07:53:29.052Z,427
2023-04-09T07:54:43.357Z,427
2023-04-09T07:55:57.595Z,433
2023-04-09T07:57:11.808Z,450
2023-04-09T07:58:26.167Z,466
2023-04-09T08:00:54.700Z,528
2023-04-09T08:02:08.928Z,708
2023-04-09T08:03:23.153Z,1113
2023-04-09T08:04:37.391Z,1715
2023-04-09T08:05:51.616Z,2143
2023-04-09T08:07:05.904Z,1788
2023-04-09T08:09:34.376Z,1884
2023-04-09T08:10:48.754Z,1816
2023-04-09T08:12:02.979Z,1726
2023-04-09T08:13:17.284Z,1710
2023-04-09T08:14:31.517Z,1721
2023-04-09T08:15:45.757Z,1530
2023-04-09T08:16:59.966Z,1614
2023-04-09T08:18:14.206Z,1906
2023-04-09T08:19:28.511Z,1878
2023-04-09T08:20:42.745Z,1670
2023-04-09T08:21:56.964Z,1800
2023-04-09T08:23:11.198Z,1906
2023-04-09T08:24:25.419Z,1985
2023-04-09T08:25:39.729Z,2036
2023-04-09T08:26:53.971Z,2064
2023-04-09T08:28:08.185Z,2047
2023-04-09T08:29:22.406Z,2025
2023-04-09T08:30:36.638Z,1985
2023-04-09T08:31:50.941Z,2025
2023-04-09T08:33:05.177Z,1991
2023-04-09T08:34:19.401Z,2092
2023-04-09T08:35:33.630Z,2210
2023-04-09T08:36:47.857Z,2283
2023-04-09T08:39:16.408Z,2182
2023-04-09T08:40:30.635Z,2244
2023-04-09T08:41:44.913Z,2205
2023-04-09T08:42:58.258Z,2266
2023-04-09T08:44:12.538Z,2272
2023-04-09T08:45:26.809Z,2233
2023-04-09T08:46:41.099Z,2238
2023-04-09T08:47:55.389Z,2193
2023-04-09T08:49:09.681Z,2081
2023-04-09T08:50:23.964Z,2143
2023-04-09T08:51:38.257Z,2261
2023-04-09T08:52:52.543Z,2160
2023-04-09T08:54:05.884Z,2205
2023-04-09T08:55:20.161Z,2283
2023-04-09T08:56:34.453Z,2289
2023-04-09T08:57:47.786Z,2193
2023-04-09T08:59:02.087Z,2210
2023-04-09T09:00:16.366Z,2311
2023-04-09T09:01:29.719Z,2368
2023-04-09T09:02:44.004Z,2362
2023-04-09T09:03:58.285Z,2306
2023-04-09T09:05:12.581Z,2373
2023-04-09T09:06:26.852Z,2266
2023-04-09T09:07:41.137Z,2345
2023-04-09T09:08:55.428Z,2306
2023-04-09T09:10:09.731Z,2368
2023-04-09T09:11:24.012Z,2536
2023-04-09T09:12:38.288Z,2356
2023-04-09T09:13:52.590Z,2520
2023-04-09T09:15:05.936Z,2503
2023-04-09T09:16:20.225Z,2536
2023-04-09T09:17:34.500Z,2671
2023-04-09T09:18:47.805Z,2531
2023-04-09T09:20:02.090Z,2536
2023-04-09T09:21:16.342Z,2356
2023-04-09T09:22:30.568Z,2407
2023-04-09T09:23:44.791Z,2655
2023-04-09T09:24:59.021Z,2452
2023-04-09T09:26:13.315Z,607
2023-04-09T09:27:27.561Z,2193
2023-04-09T09:28:41.781Z,2604
2023-04-09T09:29:56.023Z,2919
2023-04-09T09:31:10.242Z,2655
2023-04-09T09:32:24.537Z,2806
2023-04-09T09:33:38.774Z,2548
2023-04-09T09:34:53.015Z,2615
2023-04-09T09:36:07.240Z,2407
2023-04-09T09:37:21.469Z,2581
2023-04-09T09:38:35.760Z,2340
2023-04-09T09:39:50.005Z,2390
2023-04-09T09:41:04.240Z,2266
2023-04-09T09:42:18.468Z,2430
2023-04-09T09:43:32.694Z,2458
2023-04-09T09:44:46.981Z,1743
2023-04-09T09:46:01.232Z,658
2023-04-09T09:47:15.445Z,1591
2023-04-09T09:48:29.679Z,658
2023-04-09T09:49:43.958Z,641
2023-04-09T09:50:58.259Z,675
2023-04-09T09:52:12.553Z,2531
2023-04-09T09:53:25.835Z,2874
2023-04-09T09:54:40.074Z,2818
2023-04-09T09:55:54.370Z,2565
2023-04-09T09:57:08.610Z,2463
2023-04-09T09:58:22.846Z,1794
2023-04-09T09:59:37.056Z,2621
2023-04-09T10:00:51.299Z,2621
2023-04-09T10:02:05.596Z,2739
2023-04-09T10:03:19.836Z,2913
2023-04-09T10:04:34.050Z,2666
2023-04-09T10:05:48.285Z,2722
2023-04-09T10:07:02.509Z,1113
2023-04-09T10:08:16.804Z,1951
2023-04-09T10:09:31.046Z,2137
2023-04-09T10:11:59.632Z,3003
2023-04-09T10:13:13.852Z,2835
2023-04-09T10:14:28.152Z,1355
2023-04-09T10:15:42.408Z,1468
2023-04-09T10:16:56.619Z,1147
2023-04-09T10:18:10.843Z,748
2023-04-09T10:19:25.089Z,2581
2023-04-09T10:20:39.372Z,787
2023-04-09T10:21:53.620Z,731
2023-04-09T10:23:07.854Z,680
2023-04-09T10:24:22.214Z,646
2023-04-09T10:25:36.434Z,838
2023-04-09T10:26:50.744Z,1119
2023-04-09T10:28:04.980Z,1035
2023-04-09T10:29:19.209Z,849
2023-04-09T10:30:33.441Z,658
2023-04-09T10:31:47.668Z,669
2023-04-09T10:33:01.960Z,725
2023-04-09T10:34:16.208Z,753
2023-04-09T10:35:30.442Z,860
2023-04-09T10:36:44.650Z,2818
2023-04-09T10:37:58.875Z,2840
2023-04-09T10:39:13.190Z,3150
2023-04-09T10:40:27.433Z,2373
2023-04-09T10:41:41.645Z,787
2023-04-09T10:42:55.882Z,742
2023-04-09T10:44:10.117Z,849
2023-04-09T10:45:24.413Z,1243
2023-04-09T10:46:38.651Z,2874
2023-04-09T10:47:52.876Z,3060
2023-04-09T10:49:07.105Z,3088
2023-04-09T10:50:21.323Z,3065
2023-04-09T10:51:35.622Z,3054
2023-04-09T10:52:49.873Z,3065
2023-04-09T10:54:04.101Z,2846
2023-04-09T10:55:18.391Z,2806
2023-04-09T10:56:31.727Z,3031
2023-04-09T10:57:46.023Z,3127
2023-04-09T11:00:14.586Z,2835
2023-04-09T11:01:27.889Z,3054
2023-04-09T11:02:42.133Z,2913
2023-04-09T11:03:56.481Z,2975
2023-04-09T11:05:10.691Z,2863
2023-04-09T11:06:24.936Z,3088
2023-04-09T11:10:07.697Z,2846
2023-04-09T11:11:21.920Z,3020
2023-04-09T11:12:36.152Z,3138
2023-04-09T11:15:04.687Z,3133
2023-04-09T11:16:18.921Z,3161
2023-04-09T11:17:33.145Z,3076
2023-04-09T11:18:47.381Z,1411
2023-04-09T11:20:01.680Z,1018
2023-04-09T11:21:15.924Z,967
2023-04-09T11:22:30.276Z,973
2023-04-09T11:23:44.503Z,1220
2023-04-09T11:24:58.729Z,3144
2023-04-09T11:26:13.030Z,3009
2023-04-09T11:27:27.286Z,1783
2023-04-09T11:28:41.505Z,933
2023-04-09T11:29:55.739Z,1108
2023-04-09T11:31:09.960Z,3138
2023-04-09T11:32:24.262Z,3015
2023-04-09T11:33:38.504Z,776
2023-04-09T11:34:52.735Z,770
2023-04-09T11:36:07.109Z,714
2023-04-09T11:37:21.330Z,652
2023-04-09T11:38:35.622Z,596
2023-04-09T11:39:49.876Z,528
2023-04-09T11:41:04.099Z,528
2023-04-09T11:42:18.314Z,556
2023-04-09T11:43:32.539Z,585
2023-04-09T11:44:46.839Z,663
2023-04-09T11:46:01.078Z,860
2023-04-09T11:47:15.324Z,849
2023-04-09T11:48:29.538Z,1040
2023-04-09T11:49:43.765Z,714
2023-04-09T11:50:58.068Z,2711
2023-04-09T11:52:12.303Z,3144
2023-04-09T11:53:26.530Z,3425
2023-04-09T11:54:40.765Z,2323
2023-04-09T11:55:55.118Z,3150
2023-04-09T11:57:09.414Z,3043
2023-04-09T11:58:23.649Z,3223
2023-04-09T11:59:37.886Z,3217
2023-04-09T12:00:52.106Z,3200
2023-04-09T12:02:06.324Z,3172
2023-04-09T12:03:20.637Z,3020
2023-04-09T12:04:34.874Z,3256
2023-04-09T12:05:49.098Z,3285
2023-04-09T12:07:03.331Z,1563
2023-04-09T12:08:17.557Z,922
2023-04-09T12:09:31.845Z,978
2023-04-09T12:10:46.089Z,2362
2023-04-09T12:12:00.315Z,2615
2023-04-09T12:13:14.557Z,1726
2023-04-09T12:14:28.777Z,3560
2023-04-09T12:15:43.073Z,2885
2023-04-09T12:16:57.310Z,1006
2023-04-09T12:18:11.549Z,905
2023-04-09T12:19:25.782Z,832
2023-04-09T12:20:39.989Z,810
2023-04-09T12:21:54.297Z,810
2023-04-09T12:23:08.546Z,826
2023-04-09T12:24:22.772Z,810
2023-04-09T12:25:37.138Z,776
2023-04-09T12:28:05.662Z,748
2023-04-09T12:29:19.894Z,720
2023-04-09T12:30:34.244Z,697
2023-04-09T12:31:48.474Z,675
2023-04-09T12:33:02.697Z,658
2023-04-09T12:34:16.999Z,646
2023-04-09T12:35:31.246Z,652
2023-04-09T12:36:45.467Z,675
2023-04-09T12:37:59.690Z,708
2023-04-09T12:39:13.925Z,697
2023-04-09T12:40:28.231Z,725
2023-04-09T12:42:56.699Z,1209
2023-04-09T12:44:10.925Z,1198
2023-04-09T12:45:25.150Z,2851
2023-04-09T12:46:39.439Z,1687
2023-04-09T12:47:53.680Z,843
2023-04-09T12:49:07.914Z,838
2023-04-09T12:50:22.259Z,894
2023-04-09T12:51:36.496Z,871
2023-04-09T12:52:50.792Z,860
2023-04-09T12:54:05.029Z,928
2023-04-09T12:55:19.403Z,1091
2023-04-09T12:56:33.632Z,804
2023-04-09T12:57:47.854Z,770
2023-04-09T13:00:16.396Z,658
2023-04-09T13:01:30.621Z,618
2023-04-09T13:02:44.855Z,596
2023-04-09T13:03:59.082Z,585
2023-04-09T13:05:13.377Z,573
2023-04-09T13:06:27.607Z,585
2023-04-09T13:07:41.955Z,601
2023-04-09T13:08:56.188Z,630
2023-04-09T13:10:10.552Z,658
2023-04-09T13:11:24.834Z,736
2023-04-09T13:12:39.082Z,669
2023-04-09T13:13:53.309Z,675
2023-04-09T13:15:07.539Z,663
2023-04-09T13:16:21.759Z,669
2023-04-09T13:17:36.059Z,663
2023-04-09T13:18:50.309Z,646
2023-04-09T13:20:04.527Z,630
2023-04-09T13:21:18.753Z,624
2023-04-09T13:22:33.116Z,630
2023-04-09T13:25:01.673Z,646
2023-04-09T13:26:15.903Z,669
2023-04-09T13:27:30.267Z,703
2023-04-09T13:28:44.498Z,703
2023-04-09T13:29:58.782Z,703
2023-04-09T13:31:13.041Z,703
2023-04-09T13:32:27.259Z,708
2023-04-09T13:33:41.478Z,714
2023-04-09T13:34:55.858Z,742
2023-04-09T13:36:10.150Z,1012
2023-04-09T13:37:24.392Z,810
2023-04-09T13:38:38.613Z,759
2023-04-09T13:39:52.961Z,725
2023-04-09T13:41:07.203Z,720
2023-04-09T13:42:21.504Z,725
2023-04-09T13:43:35.735Z,708
2023-04-09T13:44:49.957Z,708
2023-04-09T13:46:04.197Z,708
2023-04-09T13:47:18.424Z,691
2023-04-09T13:48:32.711Z,691
2023-04-09T13:49:46.963Z,686
2023-04-09T13:51:01.188Z,720
2023-04-09T13:52:15.421Z,748
2023-04-09T13:53:29.640Z,781
2023-04-09T13:54:43.934Z,798
2023-04-09T13:55:58.181Z,753
2023-04-09T13:57:12.412Z,725
2023-04-09T13:58:26.626Z,680
2023-04-09T13:59:40.863Z,635
2023-04-09T14:00:55.151Z,590
2023-04-09T14:02:09.398Z,590
2023-04-09T14:03:23.618Z,607
2023-04-09T14:04:37.854Z,618
2023-04-09T14:05:52.082Z,641
2023-04-09T14:07:06.372Z,675
2023-04-09T14:08:20.626Z,832
2023-04-09T14:09:34.846Z,911
2023-04-09T14:10:49.081Z,1963
2023-04-09T14:12:03.302Z,2115
2023-04-09T14:13:17.597Z,2109
2023-04-09T14:14:31.847Z,2176
2023-04-09T14:15:46.070Z,1231
2023-04-09T14:17:00.297Z,748
2023-04-09T14:18:14.518Z,1951
2023-04-09T14:19:28.809Z,1710
2023-04-09T14:20:43.065Z,1091
2023-04-09T14:21:57.283Z,1411
2023-04-09T14:23:11.511Z,815
2023-04-09T14:24:25.741Z,978
2023-04-09T14:25:40.096Z,810
2023-04-09T14:26:54.374Z,748
2023-04-09T14:28:07.672Z,691
2023-04-09T14:29:21.894Z,1918
2023-04-09T14:30:36.212Z,630
2023-04-09T14:31:50.434Z,568
2023-04-09T14:33:04.674Z,528
2023-04-09T14:34:18.903Z,506
2023-04-09T14:35:33.121Z,489
2023-04-09T14:36:47.414Z,472
2023-04-09T14:38:01.661Z,472
2023-04-09T14:39:15.892Z,500
2023-04-09T14:40:30.110Z,534
2023-04-09T14:41:44.347Z,517
2023-04-09T14:42:58.642Z,495
2023-04-09T14:44:12.884Z,489
2023-04-09T14:45:27.112Z,495
2023-04-09T14:46:41.000Z,461
2023-04-09T14:47:55.556Z,450
2023-04-09T14:49:09.873Z,438
2023-04-09T14:50:24.098Z,450
2023-04-09T14:52:52.564Z,466
2023-04-09T14:54:06.774Z,444
2023-04-09T14:55:21.091Z,466
2023-04-09T14:56:35.335Z,450
2023-04-09T14:57:49.545Z,444
2023-04-09T14:59:03.831Z,472
2023-04-09T15:00:17.170Z,472
2023-04-09T15:01:31.455Z,472
2023-04-09T15:02:44.750Z,472
2023-04-09T15:03:58.970Z,489
2023-04-09T15:05:13.265Z,500
2023-04-09T15:06:27.523Z,506
2023-04-09T15:07:41.742Z,500
2023-04-09T15:08:55.956Z,478
2023-04-09T15:11:24.496Z,410
2023-04-09T15:12:38.726Z,478
2023-04-09T15:13:52.953Z,495
2023-04-09T15:15:07.196Z,466
2023-04-09T15:16:21.410Z,461
2023-04-09T15:17:35.721Z,450
2023-04-09T15:18:49.951Z,393
2023-04-09T15:20:04.180Z,393
2023-04-09T15:21:18.401Z,399
2023-04-09T15:22:32.624Z,427
2023-04-09T15:23:46.934Z,421
2023-04-09T15:25:01.170Z,421
2023-04-09T15:26:15.407Z,416
2023-04-09T15:27:29.618Z,421
2023-04-09T15:28:43.981Z,421
2023-04-09T15:29:58.281Z,416
2023-04-09T15:32:26.734Z,382
2023-04-09T15:33:40.965Z,371
2023-04-09T15:34:55.203Z,360
2023-04-09T15:36:09.489Z,354
2023-04-09T15:37:23.743Z,348
2023-04-09T15:38:38.117Z,348
2023-04-09T15:39:52.341Z,360
2023-04-09T15:41:06.551Z,365
2023-04-09T15:42:20.866Z,376
2023-04-09T15:43:35.096Z,382
2023-04-09T15:44:49.331Z,382
2023-04-09T15:46:03.687Z,382
2023-04-09T15:47:17.903Z,376
2023-04-09T15:48:32.206Z,371
2023-04-09T15:49:46.441Z,354
2023-04-09T15:51:00.676Z,337
2023-04-09T15:52:14.902Z,326
2023-04-09T15:53:29.122Z,326
2023-04-09T15:54:43.430Z,331
2023-04-09T15:55:57.659Z,320
2023-04-09T15:57:11.888Z,298
2023-04-09T15:58:26.125Z,281
2023-04-09T15:59:40.352Z,275
2023-04-09T16:00:54.656Z,270
2023-04-09T16:02:08.885Z,258
2023-04-09T16:03:23.238Z,253
2023-04-09T16:04:37.467Z,247
2023-04-09T16:05:51.692Z,247
2023-04-09T16:07:05.983Z,247
2023-04-09T16:08:20.229Z,253
2023-04-09T16:09:34.454Z,253
2023-04-09T16:10:48.824Z,253
2023-04-09T16:12:03.048Z,247
2023-04-09T16:13:17.361Z,253
2023-04-09T16:14:31.606Z,258
2023-04-09T16:15:45.968Z,264
2023-04-09T16:17:00.199Z,270
2023-04-09T16:18:14.418Z,281
2023-04-09T16:19:28.722Z,292
2023-04-09T16:20:42.953Z,303
2023-04-09T16:21:57.188Z,298
2023-04-09T16:23:11.412Z,292
2023-04-09T16:24:25.642Z,292
2023-04-09T16:25:39.946Z,286
2023-04-09T16:26:54.178Z,281
2023-04-09T16:28:08.403Z,281
2023-04-09T16:29:22.633Z,281
2023-04-09T16:30:36.872Z,275
2023-04-09T16:31:51.171Z,270
2023-04-09T16:33:05.398Z,247
2023-04-09T16:34:19.626Z,230
2023-04-09T16:35:33.847Z,219
2023-04-09T16:36:48.088Z,208
2023-04-09T16:38:02.377Z,202
2023-04-09T16:39:16.635Z,202
2023-04-09T16:40:30.856Z,202
2023-04-09T16:41:45.072Z,202
2023-04-09T16:42:59.309Z,196
2023-04-09T16:44:13.594Z,191
2023-04-09T16:45:27.843Z,180
2023-04-09T16:46:42.126Z,174
2023-04-09T16:47:55.425Z,163
2023-04-09T16:49:09.726Z,157
2023-04-09T16:50:23.965Z,151
2023-04-09T16:51:38.306Z,157
2023-04-09T16:52:52.538Z,151
2023-04-09T16:54:06.766Z,146
2023-04-09T16:55:21.062Z,140
2023-04-09T16:56:35.319Z,140
2023-04-09T16:57:49.530Z,135
2023-04-09T17:00:17.988Z,129
2023-04-09T17:01:32.296Z,129
2023-04-09T17:02:46.523Z,129
2023-04-09T17:04:00.751Z,123
2023-04-09T17:05:14.987Z,123
2023-04-09T17:06:29.201Z,123
2023-04-09T17:07:43.503Z,123
2023-04-09T17:08:57.754Z,118
2023-04-09T17:10:12.098Z,118
2023-04-09T17:12:40.545Z,118
2023-04-09T17:13:54.849Z,118
2023-04-09T17:15:09.084Z,112
2023-04-09T17:16:23.325Z,106
2023-04-09T17:17:37.542Z,101
2023-04-09T17:18:51.781Z,95
2023-04-09T17:20:06.073Z,95
2023-04-09T17:21:20.313Z,90
2023-04-09T17:22:34.538Z,90
2023-04-09T17:23:48.769Z,84
2023-04-09T17:25:03.004Z,84
2023-04-09T17:26:17.296Z,84
2023-04-09T17:27:31.533Z,78
2023-04-09T17:28:45.763Z,78
2023-04-09T17:29:59.995Z,73
2023-04-09T17:32:28.507Z,73
2023-04-09T17:33:42.749Z,67
2023-04-09T17:34:56.991Z,67
2023-04-09T17:36:11.215Z,67
2023-04-09T17:37:25.440Z,61
2023-04-09T17:38:39.743Z,61
2023-04-09T17:39:53.973Z,56
2023-04-09T17:41:08.205Z,56
2023-04-09T17:42:22.433Z,50
2023-04-09T17:43:36.647Z,50
2023-04-09T17:44:50.965Z,45
2023-04-09T17:47:19.424Z,45
2023-04-09T17:49:47.883Z,39
2023-04-09T17:51:02.171Z,39
2023-04-09T17:52:16.429Z,33
2023-04-09T17:53:30.649Z,33
2023-04-09T17:54:45.024Z,28
2023-04-09T17:55:59.242Z,28
2023-04-09T17:57:13.541Z,28
2023-04-09T17:58:27.778Z,22
2023-04-09T17:59:42.016Z,22
2023-04-09T18:00:56.234Z,22